createdAt,value
2019-01-25T00:04:14.261Z,36.50
2019-01-25T00:09:15.596Z,36.50
2019-01-25T00:14:16.982Z,36.50
2019-01-25T00:19:18.421Z,36.50
2019-01-25T00:24:19.854Z,37.20
2019-01-25T00:29:21.262Z,36.50
2019-01-25T00:34:22.652Z,36.40
2019-01-25T00:39:23.985Z,36.50
2019-01-25T00:44:25.461Z,36.50
2019-01-25T00:49:27.743Z,36.40
2019-01-25T00:54:29.100Z,36.50
2019-01-25T00:59:30.486Z,36.40
2019-01-25T01:04:31.844Z,36.30
2019-01-25T01:09:33.224Z,36.60
2019-01-25T01:14:34.589Z,36.70
2019-01-25T01:19:35.921Z,36.40
2019-01-25T01:24:37.321Z,36.50
2019-01-25T01:29:38.732Z,36.40
2019-01-25T01:34:40.122Z,36.20
2019-01-25T01:39:41.494Z,36.50
2019-01-25T01:44:42.874Z,36.40
2019-01-25T01:49:44.244Z,36.30
2019-01-25T01:54:45.604Z,36.50
2019-01-25T01:59:46.942Z,36.40
2019-01-25T02:04:48.322Z,36.40
2019-01-25T02:09:49.798Z,36.30
2019-01-25T02:14:51.233Z,36.60
2019-01-25T02:19:52.617Z,36.60
2019-01-25T02:24:53.994Z,36.50
2019-01-25T02:29:55.439Z,36.50
2019-01-25T02:34:56.867Z,36.50
2019-01-25T02:39:58.287Z,36.40
2019-01-25T02:44:59.654Z,36.30
2019-01-25T02:50:01.035Z,36.40
2019-01-25T02:55:05.366Z,36.50
2019-01-25T03:00:15.057Z,36.40
2019-01-25T03:05:18.787Z,36.30
2019-01-25T03:10:28.260Z,36.40
2019-01-25T03:15:25.228Z,37.10
2019-01-25T03:20:26.681Z,36.50
2019-01-25T03:25:28.276Z,36.60
2019-01-25T03:30:29.656Z,36.40
2019-01-25T03:35:31.079Z,36.60
2019-01-25T03:40:32.684Z,36.50
2019-01-25T03:45:34.126Z,36.50
2019-01-25T03:50:35.545Z,36.50
2019-01-25T03:55:37.077Z,36.50
2019-01-25T04:00:38.414Z,36.60
2019-01-25T04:05:40.051Z,36.60
2019-01-25T04:10:41.346Z,36.50
2019-01-25T04:15:42.745Z,36.60
2019-01-25T04:20:44.174Z,36.60
2019-01-25T04:25:45.562Z,36.50
2019-01-25T04:30:46.940Z,36.50
2019-01-25T04:35:48.523Z,36.60
2019-01-25T04:40:49.967Z,36.50
2019-01-25T04:45:51.347Z,36.50
2019-01-25T04:50:52.743Z,36.50
2019-01-25T04:55:54.242Z,36.40
2019-01-25T05:01:06.406Z,36.40
2019-01-25T05:06:08.357Z,36.60
2019-01-25T05:11:20.082Z,36.40
2019-01-25T05:16:20.195Z,36.60
2019-01-25T05:21:21.628Z,36.50
2019-01-25T05:26:22.998Z,37.30
2019-01-25T05:31:24.398Z,36.60
2019-01-25T05:36:25.775Z,36.60
2019-01-25T05:41:28.667Z,36.50
2019-01-25T05:46:30.318Z,36.50
2019-01-25T05:51:33.744Z,36.50
2019-01-25T05:56:40.412Z,36.60
2019-01-25T06:01:43.896Z,36.60
2019-01-25T06:06:45.281Z,36.70
2019-01-25T06:11:46.703Z,36.60
2019-01-25T06:16:48.111Z,36.80
2019-01-25T06:21:53.203Z,36.70
2019-01-25T06:26:54.638Z,36.80
2019-01-25T06:31:56.045Z,36.60
2019-01-25T06:36:57.469Z,36.70
2019-01-25T06:41:58.847Z,36.70
2019-01-25T06:47:00.217Z,36.80
2019-01-25T06:52:01.756Z,36.90
2019-01-25T06:57:05.041Z,36.70
2019-01-25T07:02:06.446Z,36.80
2019-01-25T07:07:09.712Z,37.20
2019-01-25T07:12:11.129Z,36.90
2019-01-25T07:17:12.466Z,36.80
2019-01-25T07:22:13.851Z,36.90
2019-01-25T07:27:15.194Z,36.90
2019-01-25T07:32:16.605Z,36.90
2019-01-25T07:37:18.052Z,36.90
2019-01-25T07:42:19.386Z,37.00
2019-01-25T07:47:20.794Z,36.90
2019-01-25T07:52:22.169Z,37.00
2019-01-25T07:57:23.723Z,36.90
2019-01-25T08:02:25.070Z,36.90
2019-01-25T08:07:26.522Z,37.00
2019-01-25T08:12:27.983Z,36.80
2019-01-25T08:17:29.405Z,36.90
2019-01-25T08:22:30.811Z,36.80
2019-01-25T08:27:32.213Z,37.00
2019-01-25T08:32:33.608Z,37.00
2019-01-25T08:37:35.121Z,37.00
2019-01-25T08:42:36.476Z,37.00
2019-01-25T08:47:38.000Z,37.10
2019-01-25T08:52:39.655Z,36.90
2019-01-25T08:57:41.211Z,36.70
2019-01-25T09:02:42.545Z,37.20
2019-01-25T09:07:44.244Z,37.10
2019-01-25T09:12:45.793Z,37.00
2019-01-25T09:17:47.391Z,37.30
2019-01-25T09:22:48.815Z,37.00
2019-01-25T09:27:50.205Z,37.10
2019-01-25T09:32:51.665Z,37.00
2019-01-25T09:37:53.144Z,37.10
2019-01-25T09:42:54.474Z,37.50
2019-01-25T09:47:55.891Z,37.10
2019-01-25T09:52:57.422Z,37.10
2019-01-25T09:58:10.435Z,37.10
2019-01-25T10:03:11.811Z,37.20
2019-01-25T10:08:13.197Z,36.90
2019-01-25T10:13:14.557Z,37.10
2019-01-25T10:18:15.984Z,37.00
2019-01-25T10:23:17.370Z,37.70
2019-01-25T10:28:18.766Z,37.00
2019-01-25T10:33:20.111Z,37.20
2019-01-25T10:38:21.544Z,37.20
2019-01-25T10:43:22.962Z,37.20
2019-01-25T10:48:24.290Z,37.20
2019-01-25T10:53:25.678Z,37.20
2019-01-25T10:58:27.034Z,37.10
2019-01-25T11:03:28.403Z,37.30
2019-01-25T11:08:29.782Z,37.20
2019-01-25T11:13:31.117Z,37.10
2019-01-25T11:18:32.820Z,37.20
2019-01-25T11:23:34.195Z,37.20
2019-01-25T11:28:35.641Z,37.30
2019-01-25T11:33:36.974Z,37.50
2019-01-25T11:38:38.470Z,37.50
2019-01-25T11:43:39.813Z,37.50
2019-01-25T11:48:41.217Z,37.70
2019-01-25T11:53:42.677Z,37.50
2019-01-25T11:58:44.111Z,37.60
2019-01-25T12:03:45.583Z,38.20
2019-01-25T12:08:47.034Z,37.60
2019-01-25T12:13:48.444Z,37.50
2019-01-25T12:18:49.886Z,37.60
2019-01-25T12:23:51.444Z,37.60
2019-01-25T12:28:52.804Z,37.50
2019-01-25T12:33:54.185Z,37.60
2019-01-25T12:38:55.572Z,37.50
2019-01-25T12:43:56.928Z,37.50
2019-01-25T12:48:58.496Z,37.50
2019-01-25T12:53:59.931Z,37.40
2019-01-25T12:59:01.341Z,37.50
2019-01-25T13:04:02.962Z,37.30
2019-01-25T13:09:07.154Z,37.50
2019-01-25T13:14:08.563Z,37.60
2019-01-25T13:19:09.939Z,37.40
2019-01-25T13:24:11.312Z,37.70
2019-01-25T13:29:12.683Z,37.80
2019-01-25T13:34:14.017Z,37.80
2019-01-25T13:39:15.397Z,37.70
2019-01-25T13:44:16.799Z,37.60
2019-01-25T13:49:18.213Z,37.70
2019-01-25T13:54:19.622Z,37.50
2019-01-25T13:59:21.058Z,37.70
2019-01-25T14:04:22.424Z,37.50
2019-01-25T14:09:23.811Z,37.50
2019-01-25T14:14:25.255Z,37.70
2019-01-25T14:19:26.642Z,37.60
2019-01-25T14:24:28.100Z,37.70
2019-01-25T14:29:29.466Z,37.70
2019-01-25T14:34:30.812Z,37.70
2019-01-25T14:39:32.191Z,37.70
2019-01-25T14:44:33.664Z,37.90
2019-01-25T14:49:34.987Z,37.60
2019-01-25T14:54:36.395Z,37.90
2019-01-25T14:59:37.847Z,37.70
2019-01-25T15:04:39.186Z,38.00
2019-01-25T15:09:40.563Z,37.80
2019-01-25T15:14:42.043Z,37.80
2019-01-25T15:19:44.733Z,38.00
2019-01-25T15:24:46.321Z,37.90
2019-01-25T15:29:47.746Z,37.90
2019-01-25T15:34:49.127Z,38.10
2019-01-25T15:39:50.593Z,37.80
2019-01-25T15:44:51.989Z,38.10
2019-01-25T15:49:53.440Z,38.00
2019-01-25T15:54:54.871Z,38.00
2019-01-25T15:59:56.255Z,38.10
2019-01-25T16:04:57.631Z,38.80
2019-01-25T16:09:59.064Z,38.10
2019-01-25T16:15:00.459Z,38.00
2019-01-25T16:20:03.420Z,38.20
2019-01-25T16:25:10.515Z,38.10
2019-01-25T16:30:18.539Z,38.50
2019-01-25T16:35:20.216Z,38.50
2019-01-25T16:40:28.182Z,38.70
2019-01-25T16:45:39.349Z,38.70
2019-01-25T16:50:40.907Z,39.10
2019-01-25T16:55:42.396Z,39.30
2019-01-25T17:00:43.867Z,38.90
2019-01-25T17:05:45.572Z,39.00
2019-01-25T17:10:46.993Z,39.20
2019-01-25T17:15:48.382Z,39.20
2019-01-25T17:20:49.845Z,39.20
2019-01-25T17:25:51.299Z,39.10
2019-01-25T17:30:52.736Z,39.20
2019-01-25T17:35:54.124Z,39.10
2019-01-25T17:40:55.513Z,38.90
2019-01-25T17:45:57.055Z,38.90
2019-01-25T17:50:58.658Z,38.80
2019-01-25T17:56:00.373Z,38.80
2019-01-25T18:01:01.846Z,38.50
2019-01-25T18:06:03.527Z,38.70
2019-01-25T18:11:05.926Z,38.50
2019-01-25T18:16:07.419Z,38.40
2019-01-25T18:21:08.963Z,38.50
2019-01-25T18:26:10.298Z,38.50
2019-01-25T18:31:17.423Z,38.60
2019-01-25T18:36:18.822Z,38.50
2019-01-25T18:41:20.268Z,38.40
2019-01-25T18:46:21.700Z,38.40
2019-01-25T18:51:23.176Z,38.50
2019-01-25T18:56:24.583Z,38.40
2019-01-25T19:01:26.136Z,38.50
2019-01-25T19:06:27.565Z,38.50
2019-01-25T19:11:29.089Z,38.50
2019-01-25T19:16:30.621Z,38.40
2019-01-25T19:21:31.955Z,38.40
2019-01-25T19:26:33.358Z,38.40
2019-01-25T19:31:34.823Z,38.40
2019-01-25T19:36:36.256Z,38.30
2019-01-25T19:41:37.641Z,38.40
2019-01-25T19:46:39.196Z,38.50
2019-01-25T19:51:40.572Z,38.40
2019-01-25T19:56:42.037Z,39.10
2019-01-25T20:01:43.504Z,38.60
2019-01-25T20:06:45.103Z,38.50
2019-01-25T20:11:46.519Z,38.40
2019-01-25T20:16:47.921Z,38.50
2019-01-25T20:21:49.346Z,38.50
2019-01-25T20:26:50.842Z,38.50
2019-01-25T20:31:52.180Z,38.60
2019-01-25T20:36:53.914Z,38.60
2019-01-25T20:41:55.316Z,38.50
2019-01-25T20:46:56.797Z,38.50
2019-01-25T20:51:58.169Z,38.40
2019-01-25T20:56:59.510Z,38.50
2019-01-25T21:02:00.950Z,38.50
2019-01-25T21:07:02.444Z,38.40
2019-01-25T21:12:03.953Z,38.40
2019-01-25T21:17:05.374Z,38.50
2019-01-25T21:22:06.773Z,38.50
2019-01-25T21:27:08.255Z,38.40
2019-01-25T21:32:09.702Z,38.50
2019-01-25T21:37:11.220Z,38.40
2019-01-25T21:42:12.636Z,38.50
2019-01-25T21:47:14.203Z,38.50
2019-01-25T21:52:16.020Z,39.00
2019-01-25T21:57:17.600Z,39.10
2019-01-25T22:02:18.986Z,39.20
2019-01-25T22:07:21.356Z,39.40
2019-01-25T22:12:22.870Z,39.50
2019-01-25T22:17:24.198Z,39.40
2019-01-25T22:22:25.960Z,39.40
2019-01-25T22:27:27.371Z,39.10
2019-01-25T22:32:28.731Z,39.40
2019-01-25T22:37:30.098Z,39.20
2019-01-25T22:42:31.452Z,39.40
2019-01-25T22:47:32.815Z,39.30
2019-01-25T22:52:34.191Z,39.20
2019-01-25T22:57:35.528Z,39.20
2019-01-25T23:02:37.031Z,39.40
2019-01-25T23:07:38.482Z,39.30
2019-01-25T23:12:39.922Z,39.30
2019-01-25T23:17:41.318Z,39.40
2019-01-25T23:22:42.682Z,39.30
2019-01-25T23:27:44.060Z,39.30
2019-01-25T23:32:45.697Z,40.10
2019-01-25T23:37:47.088Z,39.40
2019-01-25T23:42:48.714Z,39.10
2019-01-25T23:47:50.128Z,39.50
2019-01-25T23:52:51.530Z,39.30
2019-01-25T23:57:52.912Z,39.40
